Time;durP1;ratioP1;P1;durP2;ratioP2;P2;SDS_P1;SDS_P2;PMS_P1;PMS_P2;Temp;Humidity;BMP_temperature;BMP_pressure;BME280_temperature;BME280_humidity;BME280_pressure;Samples;Min_cycle;Max_cycle;Signal;HPM_P1;HPM_P2
2020/12/29 00:01:41;;;;;;;56.33;32.00;;;0.40;99.90;;;;;;5040851;28;20296;-65
2020/12/29 00:04:22;;;;;;;51.13;29.73;;;0.40;99.90;;;;;;5059278;28;20250;-65
2020/12/29 00:06:49;;;;;;;51.40;30.00;;;0.50;99.90;;;;;;5058858;28;20289;-65
2020/12/29 00:09:16;;;;;;;56.23;33.70;;;0.50;99.90;;;;;;5058823;28;20161;-65
2020/12/29 00:11:43;;;;;;;58.50;32.97;;;0.50;99.90;;;;;;5058497;28;20096;-65
2020/12/29 00:14:09;;;;;;;63.25;33.80;;;0.60;99.90;;;;;;5058840;28;20051;-65
2020/12/29 00:16:35;;;;;;;72.40;36.90;;;0.60;99.90;;;;;;5023663;28;20563;-65
2020/12/29 00:19:01;;;;;;;67.23;35.17;;;0.60;99.90;;;;;;5058270;28;20402;-64
2020/12/29 00:21:27;;;;;;;61.03;35.07;;;0.60;99.90;;;;;;5042052;28;20003;-65
2020/12/29 00:23:53;;;;;;;63.57;33.67;;;0.60;99.90;;;;;;5038743;28;19909;-65
2020/12/29 00:26:18;;;;;;;61.73;34.40;;;0.60;99.90;;;;;;5038227;28;20034;-65
2020/12/29 00:28:45;;;;;;;61.17;33.77;;;0.60;99.90;;;;;;5040877;28;20032;-65
2020/12/29 00:31:16;;;;;;;68.50;34.70;;;0.60;99.90;;;;;;5057579;28;20333;-65
2020/12/29 00:33:42;;;;;;;78.63;40.63;;;0.60;99.90;;;;;;5058130;28;20039;-64
2020/12/29 00:36:08;;;;;;;72.77;41.43;;;0.60;99.90;;;;;;5058018;28;20258;-65
2020/12/29 00:38:33;;;;;;;80.60;42.90;;;0.70;99.90;;;;;;5023546;28;20304;-64
2020/12/29 00:40:59;;;;;;;74.00;39.40;;;0.70;99.90;;;;;;5040162;28;20439;-65
2020/12/29 00:43:24;;;;;;;77.97;43.07;;;0.70;99.90;;;;;;5057567;28;20055;-64
2020/12/29 00:45:50;;;;;;;71.57;39.03;;;0.70;99.90;;;;;;5058080;28;20029;-65
2020/12/29 00:48:16;;;;;;;62.47;34.37;;;0.80;99.90;;;;;;5057718;28;20317;-65
2020/12/29 00:50:41;;;;;;;57.80;33.63;;;0.70;99.90;;;;;;5058071;28;20437;-65
2020/12/29 00:53:08;;;;;;;57.70;32.07;;;0.70;99.90;;;;;;5057794;28;20021;-65
2020/12/29 00:55:34;;;;;;;63.07;35.40;;;0.60;99.90;;;;;;5056756;28;20044;-65
2020/12/29 00:57:59;;;;;;;64.25;35.50;;;0.60;99.90;;;;;;5057301;28;20058;-65
2020/12/29 01:00:25;;;;;;;54.95;33.45;;;0.50;99.90;;;;;;5057206;28;20144;-64
2020/12/29 01:02:50;;;;;;;56.33;32.73;;;0.50;99.90;;;;;;5039791;28;20043;-65
2020/12/29 01:05:16;;;;;;;56.30;32.07;;;0.50;99.90;;;;;;5039705;28;20033;-65
2020/12/29 01:07:42;;;;;;;52.27;32.07;;;0.50;99.90;;;;;;5057809;28;20071;-65
2020/12/29 01:10:08;;;;;;;62.47;37.30;;;0.50;99.90;;;;;;5057717;28;20033;-65
2020/12/29 01:12:34;;;;;;;62.90;34.97;;;0.40;99.90;;;;;;5057525;28;20040;-65
2020/12/29 01:14:59;;;;;;;65.73;38.27;;;0.40;99.90;;;;;;5057686;28;20094;-65
2020/12/29 01:17:25;;;;;;;49.93;31.77;;;0.40;99.90;;;;;;5057159;28;20265;-65
2020/12/29 01:19:50;;;;;;;58.57;31.63;;;0.40;99.90;;;;;;5057108;28;19963;-65
2020/12/29 01:22:16;;;;;;;58.10;30.10;;;0.30;99.90;;;;;;5057568;28;20094;-65
2020/12/29 01:24:42;;;;;;;56.03;30.63;;;0.30;99.90;;;;;;5039319;28;20359;-65
2020/12/29 01:27:08;;;;;;;59.65;30.10;;;0.30;99.90;;;;;;5056798;28;20035;-65
2020/12/29 01:29:33;;;;;;;51.20;26.50;;;0.30;99.90;;;;;;5039301;28;20366;-65
2020/12/29 01:32:00;;;;;;;42.80;23.30;;;0.30;99.90;;;;;;5056974;28;20385;-65
2020/12/29 01:34:25;;;;;;;43.40;22.05;;;0.20;99.90;;;;;;5038950;28;20028;-65
2020/12/29 01:36:51;;;;;;;42.13;25.53;;;0.10;99.90;;;;;;5056909;28;20270;-65
2020/12/29 01:39:18;;;;;;;35.80;23.10;;;0.20;99.90;;;;;;5057064;28;19955;-65
2020/12/29 01:41:43;;;;;;;42.87;22.40;;;0.30;99.90;;;;;;5039036;28;20095;-64
2020/12/29 01:44:17;;;;;;;43.05;21.70;;;0.20;99.90;;;;;;5039199;28;20565;-65
2020/12/29 01:46:50;;;;;;;39.43;20.90;;;0.30;99.90;;;;;;5056974;28;20037;-65
2020/12/29 01:49:17;;;;;;;38.27;21.03;;;0.30;99.90;;;;;;5056783;28;20236;-65
2020/12/29 01:51:43;;;;;;;44.30;24.80;;;0.20;99.90;;;;;;5056735;28;20052;-65
2020/12/29 01:54:09;;;;;;;50.95;24.05;;;0.30;99.90;;;;;;5056769;28;20248;-65
2020/12/29 01:56:37;;;;;;;;;;;0.20;99.90;;;;;;5056680;28;20248;-65
2020/12/29 01:59:10;;;;;;;41.40;22.60;;;0.20;99.90;;;;;;5056579;28;20259;-65
2020/12/29 02:01:45;;;;;;;31.90;15.03;;;0.20;99.90;;;;;;5056967;28;20126;-65
2020/12/29 02:04:12;;;;;;;40.75;19.55;;;0.20;99.90;;;;;;5056554;28;20033;-65
2020/12/29 02:06:39;;;;;;;36.20;19.77;;;0.20;99.90;;;;;;5038256;28;20282;-65
2020/12/29 02:09:06;;;;;;;35.13;20.37;;;0.20;99.90;;;;;;5055084;28;20243;-65
2020/12/29 02:11:33;;;;;;;37.37;20.77;;;0.20;99.90;;;;;;5056594;28;20040;-65
2020/12/29 02:13:59;;;;;;;32.30;20.07;;;0.20;99.90;;;;;;5038636;28;20216;-64
2020/12/29 02:16:25;;;;;;;36.60;19.90;;;0.20;99.90;;;;;;5056450;28;20073;-65
2020/12/29 02:18:50;;;;;;;39.47;20.27;;;0.20;99.90;;;;;;5056404;28;20053;-65
2020/12/29 02:21:16;;;;;;;33.93;18.77;;;0.20;99.90;;;;;;5056157;28;19915;-64
2020/12/29 02:23:42;;;;;;;38.65;19.35;;;0.40;99.90;;;;;;5056776;28;20032;-65
2020/12/29 02:26:08;;;;;;;37.75;18.80;;;0.50;99.90;;;;;;5056298;28;20539;-65
2020/12/29 02:28:34;;;;;;;38.50;18.67;;;0.40;99.90;;;;;;5056258;28;20033;-65
2020/12/29 02:31:00;;;;;;;40.13;20.47;;;0.40;99.90;;;;;;5038334;28;20446;-65
2020/12/29 02:33:25;;;;;;;43.73;22.83;;;0.50;99.90;;;;;;5038235;28;20032;-65
2020/12/29 02:35:51;;;;;;;42.20;24.97;;;0.50;99.90;;;;;;5056287;28;19909;-65
2020/12/29 02:38:24;;;;;;;42.97;25.43;;;0.50;99.90;;;;;;5056036;28;20033;-64
2020/12/29 02:40:51;;;;;;;44.38;26.20;;;0.50;99.90;;;;;;5056456;28;20438;-65
2020/12/29 02:43:17;;;;;;;43.77;25.30;;;0.50;99.90;;;;;;5056141;28;20431;-65
2020/12/29 02:45:43;;;;;;;41.80;24.30;;;0.40;99.90;;;;;;5056074;28;20286;-65
2020/12/29 02:48:09;;;;;;;42.65;23.25;;;0.40;99.90;;;;;;5056010;28;20672;-65
2020/12/29 02:50:35;;;;;;;44.33;24.07;;;0.30;99.90;;;;;;5038114;28;20029;-65
2020/12/29 02:53:02;;;;;;;42.30;26.35;;;0.40;99.90;;;;;;5056345;28;20131;-64
2020/12/29 02:55:27;;;;;;;47.80;25.80;;;0.40;99.90;;;;;;5056060;28;19909;-65
2020/12/29 02:57:53;;;;;;;44.97;26.07;;;0.40;99.90;;;;;;5056267;28;20055;-65
2020/12/29 03:00:20;;;;;;;51.73;25.57;;;0.40;99.90;;;;;;5056313;28;20079;-65
2020/12/29 03:02:46;;;;;;;47.43;25.60;;;0.30;99.90;;;;;;5056069;28;20258;-65
2020/12/29 03:05:12;;;;;;;50.87;27.43;;;0.30;99.90;;;;;;5056077;28;20216;-65
2020/12/29 03:07:37;;;;;;;45.10;26.83;;;0.20;99.90;;;;;;5055640;28;20496;-65
2020/12/29 03:10:10;;;;;;;51.37;25.73;;;0.30;99.90;;;;;;5038174;28;20024;-65
2020/12/29 03:12:40;;;;;;;41.80;23.17;;;0.20;99.90;;;;;;5058425;28;19904;-66
2020/12/29 03:15:06;;;;;;;;;;;0.20;99.90;;;;;;5009549;28;20029;-65
2020/12/29 03:17:34;;;;;;;46.85;23.70;;;0.30;99.90;;;;;;5041686;28;20077;-65
2020/12/29 03:20:00;;;;;;;;;;;0.20;99.90;;;;;;5059342;28;20443;-65
2020/12/29 03:22:25;;;;;;;;;;;0.30;99.90;;;;;;5059824;28;20089;-64
2020/12/29 03:24:51;;;;;;;;;;;0.30;99.90;;;;;;5041930;28;20065;-65
2020/12/29 03:27:16;;;;;;;;;;;0.40;99.90;;;;;;5059618;28;20088;-65
2020/12/29 03:29:42;;;;;;;34.90;18.40;;;0.30;99.90;;;;;;5059785;28;20467;-65
2020/12/29 03:32:08;;;;;;;34.07;19.63;;;0.40;99.90;;;;;;5024604;28;20031;-65
2020/12/29 03:34:39;;;;;;;40.10;20.63;;;0.30;99.90;;;;;;5041544;28;20028;-65
2020/12/29 03:37:06;;;;;;;37.73;19.13;;;0.40;99.90;;;;;;5059642;28;20029;-65
2020/12/29 03:39:32;;;;;;;36.00;18.83;;;0.40;99.90;;;;;;5059440;28;20254;-65
2020/12/29 03:41:58;;;;;;;36.17;18.73;;;0.50;99.90;;;;;;5059764;28;20252;-65
2020/12/29 03:44:23;;;;;;;32.55;18.15;;;0.50;99.90;;;;;;5059468;28;20032;-65
2020/12/29 03:46:49;;;;;;;33.53;19.63;;;0.40;99.90;;;;;;5041070;28;20033;-65
2020/12/29 03:49:15;;;;;;;36.60;19.03;;;0.50;99.90;;;;;;5059252;28;20017;-65
2020/12/29 03:51:41;;;;;;;46.15;24.40;;;0.40;99.90;;;;;;5058971;28;20224;-65
2020/12/29 03:54:06;;;;;;;45.97;25.10;;;0.40;99.90;;;;;;5041350;28;20359;-65
2020/12/29 03:56:32;;;;;;;44.83;25.23;;;0.40;99.90;;;;;;5058896;28;20140;-65
2020/12/29 03:58:57;;;;;;;48.07;25.27;;;0.40;99.90;;;;;;5058388;28;20300;-65
2020/12/29 04:01:23;;;;;;;43.43;23.13;;;0.40;99.90;;;;;;5059155;28;20036;-65
2020/12/29 04:03:49;;;;;;;41.20;24.20;;;0.40;99.90;;;;;;5058704;28;20032;-65
2020/12/29 04:06:15;;;;;;;43.33;23.17;;;0.40;99.90;;;;;;5058700;28;20231;-65
2020/12/29 04:08:40;;;;;;;39.20;23.53;;;0.40;99.90;;;;;;5040684;28;20045;-65
2020/12/29 04:11:07;;;;;;;50.83;24.97;;;0.40;99.90;;;;;;5024447;28;19908;-65
2020/12/29 04:13:33;;;;;;;;;;;0.40;99.90;;;;;;5041134;28;20347;-65
2020/12/29 04:15:58;;;;;;;;;;;0.30;99.90;;;;;;5059043;28;19944;-65
2020/12/29 04:18:24;;;;;;;;;;;0.30;99.90;;;;;;5058963;28;19913;-65
2020/12/29 04:20:49;;;;;;;;;;;0.40;99.90;;;;;;5058994;28;19962;-65
2020/12/29 04:23:15;;;;;;;;;;;0.30;99.90;;;;;;5058349;28;20037;-65
2020/12/29 04:25:40;;;;;;;;;;;0.30;99.90;;;;;;5058614;28;19915;-65
2020/12/29 04:28:06;;;;;;;;;;;0.40;99.90;;;;;;5058965;28;20016;-65
2020/12/29 04:30:31;;;;;;;;;;;0.40;99.90;;;;;;5040175;28;19909;-65
2020/12/29 04:32:57;;;;;;;;;;;0.50;99.90;;;;;;5058725;28;20066;-65
2020/12/29 04:35:22;;;;;;;;;;;0.50;99.90;;;;;;5040450;28;20052;-65
2020/12/29 04:37:48;;;;;;;;;;;0.60;99.90;;;;;;5058388;28;20042;-65
2020/12/29 04:40:13;;;;;;;;;;;0.60;99.90;;;;;;5040717;28;20433;-65
2020/12/29 04:42:40;;;;;;;;;;;0.60;99.90;;;;;;5040981;28;20038;-65
2020/12/29 04:45:06;;;;;;;;;;;0.70;99.90;;;;;;5058389;28;20039;-65
2020/12/29 04:47:31;;;;;;;;;;;0.70;99.90;;;;;;5058550;28;20350;-65
2020/12/29 04:49:57;;;;;;;;;;;0.70;99.90;;;;;;5058235;28;20466;-65
2020/12/29 04:52:23;;;;;;;;;;;0.70;99.90;;;;;;5058599;28;20068;-65
2020/12/29 04:54:53;;;;;;;;;;;0.80;99.90;;;;;;5057817;28;20039;-65
2020/12/29 04:57:19;;;;;;;;;;;0.80;99.90;;;;;;5058536;28;20408;-65
2020/12/29 04:59:44;;;;;;;;;;;0.90;99.90;;;;;;5057845;28;20076;-65
2020/12/29 05:02:10;;;;;;;;;;;1.00;99.90;;;;;;5040319;28;20068;-65
2020/12/29 05:04:36;;;;;;;;;;;1.00;99.90;;;;;;5056769;28;20342;-65
2020/12/29 05:07:01;;;;;;;;;;;1.00;99.90;;;;;;5058250;28;20049;-64
2020/12/29 05:09:27;;;;;;;;;;;1.00;99.90;;;;;;5057805;28;20359;-65
2020/12/29 05:11:53;;;;;;;;;;;1.10;99.90;;;;;;5058233;28;20032;-65
2020/12/29 05:14:19;;;;;;;;;;;1.10;99.90;;;;;;5057888;28;20058;-65
2020/12/29 05:16:45;;;;;;;36.70;18.80;;;1.10;99.90;;;;;;5057661;28;20335;-65
2020/12/29 05:19:12;;;;;;;;;;;1.10;99.90;;;;;;5057544;28;20072;-65
2020/12/29 05:21:38;;;;;;;;;;;1.10;99.90;;;;;;5057352;28;20126;-65
2020/12/29 05:24:13;;;;;;;35.10;19.80;;;1.20;99.90;;;;;;5039174;28;20406;-66
2020/12/29 05:26:40;;;;;;;30.10;17.20;;;1.20;99.90;;;;;;5057577;28;20472;-66
2020/12/29 05:29:07;;;;;;;;;;;1.30;99.90;;;;;;5057265;28;20367;-66
2020/12/29 05:31:36;;;;;;;29.70;18.30;;;1.30;99.90;;;;;;5057467;28;20308;-65
2020/12/29 05:34:02;;;;;;;;;;;1.40;99.90;;;;;;5056936;28;20094;-66
2020/12/29 05:36:28;;;;;;;28.00;17.10;;;1.40;99.90;;;;;;5057093;28;20047;-66
2020/12/29 05:39:08;;;;;;;27.40;18.05;;;1.40;99.90;;;;;;5057111;28;20142;-66
2020/12/29 05:41:45;;;;;;;29.20;16.20;;;1.40;99.90;;;;;;5039077;28;20045;-65
2020/12/29 05:44:27;;;;;;;29.37;16.23;;;1.40;99.90;;;;;;5057206;28;20146;-65
2020/12/29 05:47:01;;;;;;;25.90;14.90;;;1.40;99.90;;;;;;5056760;28;20098;-65
2020/12/29 05:49:30;;;;;;;29.75;16.10;;;1.50;99.90;;;;;;5057212;28;20111;-65
2020/12/29 05:51:56;;;;;;;27.03;17.13;;;1.50;99.90;;;;;;5056846;28;20060;-66
2020/12/29 05:54:24;;;;;;;30.70;16.60;;;1.50;99.90;;;;;;5057053;28;20039;-66
2020/12/29 05:56:50;;;;;;;26.13;15.63;;;1.50;99.90;;;;;;5056676;28;20441;-66
2020/12/29 05:59:16;;;;;;;31.23;16.27;;;1.50;99.90;;;;;;5056557;28;20072;-65
2020/12/29 06:01:45;;;;;;;27.70;16.80;;;1.50;99.90;;;;;;5038807;28;20068;-65
2020/12/29 06:04:11;;;;;;;24.40;13.80;;;1.50;99.90;;;;;;5056910;28;20334;-65
2020/12/29 06:06:39;;;;;;;29.10;17.30;;;1.50;99.90;;;;;;5057071;28;20426;-66
2020/12/29 06:09:08;;;;;;;26.55;16.35;;;1.50;99.90;;;;;;5056551;28;20090;-65
2020/12/29 06:11:47;;;;;;;34.43;16.00;;;1.50;99.90;;;;;;5056434;28;20094;-65
2020/12/29 06:14:15;;;;;;;28.50;15.90;;;1.60;99.90;;;;;;5056564;28;20037;-65
2020/12/29 06:16:42;;;;;;;31.50;17.00;;;1.60;99.90;;;;;;5056378;28;20049;-65
2020/12/29 06:19:24;;;;;;;30.20;16.30;;;1.60;99.90;;;;;;5056342;28;20106;-65
2020/12/29 06:22:04;;;;;;;33.90;16.40;;;1.60;99.90;;;;;;5056496;28;20124;-65
2020/12/29 06:24:30;;;;;;;;;;;1.60;99.90;;;;;;5056439;28;20042;-65
2020/12/29 06:27:00;;;;;;;32.60;15.50;;;1.60;99.90;;;;;;5056664;28;20083;-65
2020/12/29 06:29:40;;;;;;;28.15;14.80;;;1.60;99.90;;;;;;5056297;28;20365;-65
2020/12/29 06:32:09;;;;;;;30.75;14.30;;;1.60;99.90;;;;;;5056115;28;20028;-65
2020/12/29 06:34:35;;;;;;;27.60;14.10;;;1.70;99.90;;;;;;5056587;28;20028;-65
2020/12/29 06:37:35;;;;;;;30.65;14.70;;;1.70;99.90;;;;;;5057002;28;20052;-66
2020/12/29 06:40:09;;;;;;;25.25;13.95;;;1.70;99.90;;;;;;5015349;28;20064;-66
2020/12/29 06:42:38;;;;;;;;;;;1.70;99.90;;;;;;5039102;28;20356;-65
2020/12/29 06:45:05;;;;;;;;;;;1.80;99.90;;;;;;5038207;28;19908;-65
2020/12/29 06:47:31;;;;;;;32.30;18.25;;;1.80;99.90;;;;;;5060523;28;20024;-65
2020/12/29 06:49:56;;;;;;;31.70;18.10;;;1.80;99.90;;;;;;5061046;28;20054;-66
2020/12/29 06:52:25;;;;;;;;;;;1.80;99.90;;;;;;5059898;28;20045;-66
2020/12/29 06:54:57;;;;;;;;;;;1.80;99.90;;;;;;5060418;28;20044;-66
2020/12/29 06:57:35;;;;;;;;;;;1.90;99.90;;;;;;5060272;28;20073;-66
2020/12/29 07:00:07;;;;;;;26.60;15.20;;;1.90;99.90;;;;;;5059916;28;20290;-66
2020/12/29 07:02:36;;;;;;;;;;;1.90;99.90;;;;;;5043359;28;20060;-66
2020/12/29 07:05:15;;;;;;;26.90;14.20;;;1.90;99.90;;;;;;5059844;28;20278;-66
2020/12/29 07:07:59;;;;;;;24.80;15.00;;;1.90;99.90;;;;;;5042253;28;20064;-65
2020/12/29 07:10:28;;;;;;;;;;;1.90;99.90;;;;;;5042128;28;20063;-66
2020/12/29 07:12:54;;;;;;;21.50;13.45;;;1.90;99.90;;;;;;5059840;28;20262;-65
2020/12/29 07:15:23;;;;;;;28.40;14.30;;;2.00;99.90;;;;;;5059606;28;20090;-66
2020/12/29 07:17:58;;;;;;;;;;;2.00;99.90;;;;;;5060055;28;20029;-66
2020/12/29 07:20:26;;;;;;;26.25;13.00;;;2.00;99.90;;;;;;5059344;28;20290;-66
2020/12/29 07:22:53;;;;;;;;;;;2.00;99.90;;;;;;5059694;28;20095;-66
2020/12/29 07:25:21;;;;;;;22.30;13.30;;;2.00;99.90;;;;;;5059474;28;20578;-66
2020/12/29 07:27:49;;;;;;;25.10;11.90;;;2.00;99.90;;;;;;5059439;28;20065;-65
2020/12/29 07:30:15;;;;;;;;;;;2.00;99.90;;;;;;5059797;28;20086;-66
2020/12/29 07:32:40;;;;;;;;;;;2.00;99.90;;;;;;5059528;28;20321;-66
2020/12/29 07:35:06;;;;;;;26.90;14.20;;;2.00;99.90;;;;;;5041889;28;20467;-65
2020/12/29 07:37:33;;;;;;;;;;;2.00;99.90;;;;;;5059160;28;20061;-66
2020/12/29 07:39:59;;;;;;;;;;;1.90;99.90;;;;;;5059653;28;20047;-66
2020/12/29 07:42:24;;;;;;;;;;;1.90;99.90;;;;;;5059275;28;20498;-66
2020/12/29 07:44:50;;;;;;;;;;;1.90;99.90;;;;;;5041425;28;20056;-66
2020/12/29 07:47:16;;;;;;;27.00;13.05;;;1.90;99.90;;;;;;5059272;28;20052;-66
2020/12/29 07:49:41;;;;;;;30.00;14.05;;;1.90;99.90;;;;;;5041210;28;20032;-66
2020/12/29 07:52:07;;;;;;;20.87;11.10;;;1.80;99.90;;;;;;5024738;28;19909;-66
2020/12/29 07:54:33;;;;;;;25.35;12.05;;;1.80;99.90;;;;;;5059177;28;20025;-66
2020/12/29 07:56:59;;;;;;;24.43;11.70;;;1.80;99.90;;;;;;5040167;28;20111;-66
2020/12/29 07:59:25;;;;;;;21.20;10.80;;;1.80;99.90;;;;;;5058759;28;20074;-66
2020/12/29 08:01:54;;;;;;;19.53;11.40;;;1.70;99.90;;;;;;5059011;28;20029;-66
2020/12/29 08:04:38;;;;;;;22.90;11.80;;;1.70;99.90;;;;;;5041299;28;20004;-66
2020/12/29 08:07:08;;;;;;;;;;;1.70;99.90;;;;;;5059070;28;20089;-66
2020/12/29 08:09:44;;;;;;;25.50;11.93;;;1.60;99.90;;;;;;5058711;28;19905;-66
2020/12/29 08:12:10;;;;;;;21.35;12.35;;;1.60;99.90;;;;;;5040790;28;20340;-66
2020/12/29 08:14:40;;;;;;;22.03;11.87;;;1.50;99.90;;;;;;5040942;28;20243;-66
2020/12/29 08:17:06;;;;;;;28.90;13.90;;;1.50;99.90;;;;;;5058790;28;20123;-65
2020/12/29 08:19:32;;;;;;;26.10;13.57;;;1.40;99.90;;;;;;5058238;28;20258;-66
2020/12/29 08:22:09;;;;;;;29.30;14.10;;;1.40;99.90;;;;;;5040523;28;20517;-65
2020/12/29 08:24:38;;;;;;;23.05;13.05;;;1.40;99.90;;;;;;5058404;28;19999;-66
2020/12/29 08:27:04;;;;;;;28.27;14.10;;;1.40;99.90;;;;;;5058363;28;20062;-66
2020/12/29 08:29:32;;;;;;;27.63;15.57;;;1.40;99.90;;;;;;5058090;28;20024;-66
2020/12/29 08:32:17;;;;;;;24.67;12.70;;;1.40;99.90;;;;;;5058193;28;20021;-65
2020/12/29 08:34:46;;;;;;;31.70;14.30;;;1.40;99.90;;;;;;5058399;28;20066;-65
2020/12/29 08:37:18;;;;;;;25.55;12.35;;;1.40;99.90;;;;;;5058401;28;20297;-65
2020/12/29 08:40:13;;;;;;;22.75;13.35;;;1.50;99.90;;;;;;5058295;28;20063;-65
2020/12/29 08:42:43;;;;;;;26.93;12.63;;;1.60;99.90;;;;;;5058008;28;20132;-65
2020/12/29 08:45:10;;;;;;;34.77;13.17;;;1.70;99.90;;;;;;5057881;28;20046;-66
2020/12/29 08:47:35;;;;;;;22.00;12.73;;;1.80;99.90;;;;;;5057801;28;20060;-66
2020/12/29 08:50:31;;;;;;;28.13;12.73;;;1.90;99.90;;;;;;5057706;28;25116;-66
2020/12/29 08:53:08;;;;;;;19.40;11.70;;;1.90;99.90;;;;;;5058073;28;20029;-64
2020/12/29 08:55:36;;;;;;;21.90;10.30;;;2.00;99.90;;;;;;5057692;28;20064;-65
2020/12/29 08:58:03;;;;;;;18.10;11.30;;;2.00;99.90;;;;;;5057454;28;20051;-61
2020/12/29 09:00:30;;;;;;;17.40;9.95;;;2.10;99.90;;;;;;5057412;28;20097;-61
2020/12/29 09:02:56;;;;;;;15.90;8.73;;;2.10;99.90;;;;;;5057533;28;20464;-61
2020/12/29 09:05:32;;;;;;;17.85;9.40;;;2.10;99.90;;;;;;5039817;28;20122;-63
2020/12/29 09:07:57;;;;;;;15.90;9.40;;;2.10;99.90;;;;;;5057564;28;20084;-63
2020/12/29 09:10:23;;;;;;;17.00;9.40;;;2.30;99.90;;;;;;5056440;28;20236;-63
2020/12/29 09:12:49;;;;;;;17.83;9.50;;;2.30;99.90;;;;;;5057266;28;20106;-63
2020/12/29 09:15:27;;;;;;;20.43;8.63;;;2.30;99.90;;;;;;5057311;28;20320;-63
2020/12/29 09:18:00;;;;;;;15.60;9.30;;;2.30;99.90;;;;;;5057904;28;20021;-63
2020/12/29 09:20:29;;;;;;;15.40;9.63;;;2.30;99.90;;;;;;5039173;28;20109;-63
2020/12/29 09:23:12;;;;;;;15.85;9.10;;;2.30;99.90;;;;;;5057423;28;20175;-63
2020/12/29 09:25:38;;;;;;;15.13;8.23;;;2.40;99.90;;;;;;5039433;28;20266;-63
2020/12/29 09:28:24;;;;;;;13.83;7.37;;;2.50;99.90;;;;;;5056930;28;20430;-63
2020/12/29 09:31:04;;;;;;;15.25;8.00;;;2.50;99.90;;;;;;5038907;28;19908;-64
2020/12/29 09:33:30;;;;;;;13.10;7.63;;;2.60;99.90;;;;;;5038843;28;20299;-63
2020/12/29 09:36:02;;;;;;;11.70;6.90;;;2.60;99.90;;;;;;5039281;28;19931;-63
2020/12/29 09:38:28;;;;;;;14.00;7.47;;;2.60;99.90;;;;;;5056843;28;19947;-63
2020/12/29 09:40:54;;;;;;;13.13;8.47;;;2.70;99.90;;;;;;5036810;28;20043;-63
2020/12/29 09:43:21;;;;;;;11.40;7.30;;;2.70;99.90;;;;;;5055633;28;20231;-63
2020/12/29 09:45:47;;;;;;;12.35;7.05;;;2.60;99.90;;;;;;5056357;28;20470;-63
2020/12/29 09:48:13;;;;;;;15.80;8.27;;;2.60;99.90;;;;;;5056101;28;19944;-63
2020/12/29 09:50:39;;;;;;;16.95;9.50;;;2.60;99.90;;;;;;5055304;28;20034;-63
2020/12/29 09:53:05;;;;;;;18.90;8.80;;;2.60;99.90;;;;;;5038389;28;20061;-63
2020/12/29 09:55:31;;;;;;;17.10;8.95;;;2.60;99.90;;;;;;5022154;28;20049;-63
2020/12/29 09:57:56;;;;;;;14.95;8.30;;;2.50;99.90;;;;;;5056003;28;20104;-63
2020/12/29 10:00:22;;;;;;;17.55;10.95;;;2.50;99.90;;;;;;5055524;28;19970;-63
2020/12/29 10:02:49;;;;;;;17.00;9.90;;;2.50;99.90;;;;;;5054710;28;20033;-63
2020/12/29 10:05:15;;;;;;;16.40;8.70;;;2.50;99.90;;;;;;5036826;28;20648;-63
2020/12/29 10:07:43;;;;;;;25.05;11.00;;;2.50;99.90;;;;;;5036209;28;20015;-63
2020/12/29 10:10:09;;;;;;;19.03;11.73;;;2.70;99.90;;;;;;5036668;28;20032;-64
2020/12/29 10:12:34;;;;;;;20.63;10.87;;;2.80;99.90;;;;;;5036506;28;19913;-63
2020/12/29 10:15:00;;;;;;;16.37;10.40;;;3.00;99.90;;;;;;5018540;28;20043;-63
2020/12/29 10:17:25;;;;;;;21.60;10.55;;;3.10;99.90;;;;;;5055369;28;20443;-64
2020/12/29 10:19:51;;;;;;;14.57;9.90;;;3.30;99.90;;;;;;5056231;28;19908;-67
2020/12/29 10:22:17;;;;;;;14.30;9.50;;;3.40;99.90;;;;;;5038212;28;20354;-63
2020/12/29 10:24:42;;;;;;;15.03;9.13;;;3.30;99.90;;;;;;5056452;28;19909;-64
2020/12/29 10:27:08;;;;;;;14.03;7.47;;;3.40;99.90;;;;;;5056142;28;20415;-64
2020/12/29 10:29:34;;;;;;;14.73;8.50;;;3.30;99.90;;;;;;5037947;28;20032;-64
2020/12/29 10:31:59;;;;;;;12.23;7.17;;;3.30;99.90;;;;;;5055755;28;20265;-62
2020/12/29 10:34:25;;;;;;;12.50;6.70;;;3.40;99.90;;;;;;5055964;28;20414;-62
2020/12/29 10:36:51;;;;;;;12.25;7.60;;;3.50;99.90;;;;;;5037838;28;20351;-63
2020/12/29 10:39:16;;;;;;;13.40;7.45;;;3.50;99.90;;;;;;5056283;28;19916;-64
2020/12/29 10:41:42;;;;;;;13.73;8.73;;;3.70;99.90;;;;;;5055776;28;19915;-62
2020/12/29 10:44:09;;;;;;;12.45;7.65;;;3.70;99.90;;;;;;5037963;28;20070;-62
2020/12/29 10:46:35;;;;;;;12.00;7.50;;;3.70;99.90;;;;;;5055033;28;20032;-63
2020/12/29 10:49:01;;;;;;;14.27;8.07;;;3.60;99.90;;;;;;5055694;28;20491;-62
2020/12/29 10:51:27;;;;;;;19.25;9.70;;;3.40;99.90;;;;;;5054416;28;20025;-61
2020/12/29 10:53:53;;;;;;;16.60;8.30;;;3.50;99.90;;;;;;5055365;28;20422;-62
2020/12/29 10:56:19;;;;;;;17.85;9.40;;;3.50;99.90;;;;;;5037958;28;20246;-62
2020/12/29 10:58:45;;;;;;;12.07;8.77;;;3.50;99.90;;;;;;5055071;28;20039;-62
2020/12/29 11:01:12;;;;;;;16.17;8.53;;;3.50;99.90;;;;;;5056052;28;20259;-62
2020/12/29 11:03:38;;;;;;;16.00;9.43;;;3.50;99.90;;;;;;5055373;28;19913;-62
2020/12/29 11:06:13;;;;;;;11.10;7.80;;;3.90;99.90;;;;;;5055755;28;20070;-62
2020/12/29 11:08:40;;;;;;;20.80;12.93;;;4.50;99.90;;;;;;5037672;28;20117;-62
2020/12/29 11:11:06;;;;;;;11.13;7.57;;;4.70;99.90;;;;;;5051327;28;19917;-62
2020/12/29 11:13:31;;;;;;;9.83;6.07;;;4.60;99.90;;;;;;5049090;28;20087;-62
2020/12/29 11:15:57;;;;;;;13.40;7.15;;;4.60;99.90;;;;;;5034439;28;20478;-66
2020/12/29 11:18:23;;;;;;;14.15;6.85;;;4.70;99.90;;;;;;5027300;28;20052;-64
2020/12/29 11:20:53;;;;;;;12.55;7.75;;;4.60;99.90;;;;;;5047342;28;19948;-66
2020/12/29 11:23:19;;;;;;;12.37;9.07;;;4.90;99.90;;;;;;5031149;28;20326;-64
2020/12/29 11:25:44;;;;;;;13.35;7.70;;;5.00;99.90;;;;;;5045919;28;20041;-66
2020/12/29 11:28:10;;;;;;;13.93;6.60;;;5.20;99.90;;;;;;5029049;28;19936;-63
2020/12/29 11:30:36;;;;;;;11.63;5.43;;;5.50;99.90;;;;;;5054449;28;20430;-64
2020/12/29 11:33:02;;;;;;;8.20;4.57;;;5.60;99.90;;;;;;5025102;28;20026;-63
2020/12/29 11:35:28;;;;;;;7.43;4.57;;;5.80;99.90;;;;;;5041432;28;20025;-63
2020/12/29 11:37:53;;;;;;;11.90;5.60;;;5.90;99.90;;;;;;5040736;28;19912;-64
2020/12/29 11:40:19;;;;;;;9.53;4.43;;;5.90;99.90;;;;;;5038529;28;20239;-63
2020/12/29 11:42:45;;;;;;;5.95;4.10;;;5.70;99.90;;;;;;5066309;28;20033;-63
2020/12/29 11:45:11;;;;;;;11.73;4.97;;;5.50;99.90;;;;;;5043458;28;20029;-64
2020/12/29 11:47:36;;;;;;;6.95;4.35;;;5.50;99.90;;;;;;5044530;28;20090;-63
2020/12/29 11:50:02;;;;;;;9.23;4.80;;;5.50;99.90;;;;;;5056248;28;20021;-64
2020/12/29 11:52:28;;;;;;;7.00;3.95;;;5.50;99.90;;;;;;5058242;28;20044;-65
2020/12/29 11:54:54;;;;;;;6.60;3.70;;;5.60;99.90;;;;;;5041101;28;20126;-64
2020/12/29 11:57:19;;;;;;;;;;;5.80;99.90;;;;;;5034341;28;19924;-65
2020/12/29 11:59:45;;;;;;;5.90;3.00;;;6.00;99.90;;;;;;5039043;28;20089;-65
2020/12/29 12:02:11;;;;;;;5.10;3.40;;;6.00;99.90;;;;;;5048233;28;20029;-65
2020/12/29 12:04:36;;;;;;;6.15;3.00;;;6.00;99.90;;;;;;5023965;28;20427;-66
2020/12/29 12:07:05;;;;;;;5.73;3.00;;;6.30;99.90;;;;;;5022279;28;19917;-66
2020/12/29 12:09:31;;;;;;;5.60;3.35;;;6.50;99.90;;;;;;5041064;28;20025;-65
2020/12/29 12:11:57;;;;;;;4.63;2.77;;;6.60;99.90;;;;;;5050558;28;20029;-65
2020/12/29 12:14:23;;;;;;;5.80;3.05;;;6.50;99.90;;;;;;5038648;28;20022;-65
2020/12/29 12:16:49;;;;;;;4.20;2.70;;;6.50;99.90;;;;;;5038554;28;19909;-65
2020/12/29 12:19:14;;;;;;;5.05;3.45;;;6.30;99.90;;;;;;5020956;28;20121;-65
2020/12/29 12:21:40;;;;;;;4.30;2.65;;;6.10;99.90;;;;;;5033869;28;20033;-64
2020/12/29 12:24:06;;;;;;;6.20;3.50;;;6.00;99.90;;;;;;5007957;28;20036;-65
2020/12/29 12:26:31;;;;;;;5.75;3.35;;;6.00;99.90;;;;;;5057626;28;19917;-64
2020/12/29 12:28:57;;;;;;;9.65;5.30;;;5.90;99.90;;;;;;5058434;28;19916;-64
2020/12/29 12:31:23;;;;;;;5.80;3.30;;;5.80;99.90;;;;;;5058363;28;20327;-64
2020/12/29 12:33:49;;;;;;;4.60;2.75;;;5.70;99.90;;;;;;5058402;28;20090;-64
2020/12/29 12:36:15;;;;;;;4.45;2.95;;;5.60;99.90;;;;;;5050138;28;20483;-65
2020/12/29 12:38:42;;;;;;;5.10;2.75;;;5.50;99.90;;;;;;5038125;28;20508;-65
2020/12/29 12:41:08;;;;;;;7.00;3.20;;;5.60;99.90;;;;;;5038817;28;20331;-65
2020/12/29 12:43:34;;;;;;;6.90;3.90;;;5.50;99.90;;;;;;5037860;28;19905;-66
2020/12/29 12:45:59;;;;;;;6.77;3.23;;;5.50;99.90;;;;;;5038759;28;20054;-66
2020/12/29 12:48:25;;;;;;;4.50;3.30;;;5.50;99.90;;;;;;5057729;28;20033;-65
2020/12/29 12:50:51;;;;;;;6.30;3.10;;;5.50;99.90;;;;;;5057300;28;20223;-65
2020/12/29 12:53:16;;;;;;;7.20;3.15;;;5.60;99.90;;;;;;5058143;28;20017;-65
2020/12/29 12:55:42;;;;;;;6.57;2.77;;;5.60;99.90;;;;;;5057533;28;20024;-65
2020/12/29 12:58:08;;;;;;;8.37;5.20;;;5.60;99.90;;;;;;5065865;28;19917;-65
2020/12/29 13:00:33;;;;;;;5.43;3.57;;;5.50;99.90;;;;;;5048721;28;19963;-63